Time;durP1;ratioP1;P1;durP2;ratioP2;P2;SDS_P1;SDS_P2;PMS_P1;PMS_P2;Temp;Humidity;BMP_temperature;BMP_pressure;BME280_temperature;BME280_humidity;BME280_pressure;Samples;Min_cycle;Max_cycle;Signal;HPM_P1;HPM_P2
2022/12/31 00:01:50;;;;;;;19.77;2.63;;;;;;;10.74;100.00;100225.25;5049042;28;20029;-44
2022/12/31 00:04:16;;;;;;;17.00;2.70;;;;;;;10.74;100.00;100217.19;5041226;28;20031;-44
2022/12/31 00:06:41;;;;;;;23.65;2.63;;;;;;;10.71;100.00;100231.00;5029229;28;20127;-44
2022/12/31 00:09:07;;;;;;;22.85;3.35;;;;;;;10.69;100.00;100232.22;5050182;28;20068;-42
2022/12/31 00:11:34;;;;;;;28.35;4.18;;;;;;;10.67;100.00;100216.28;5045701;28;20039;-44
2022/12/31 00:13:59;;;;;;;22.50;3.47;;;;;;;10.65;100.00;100222.91;5050104;28;20036;-44
2022/12/31 00:16:31;;;;;;;26.02;2.42;;;;;;;10.63;100.00;100223.09;5050132;28;20025;-44
2022/12/31 00:19:00;;;;;;;28.30;2.75;;;;;;;10.60;100.00;100231.56;5049676;28;20634;-45
2022/12/31 00:21:27;;;;;;;23.25;2.80;;;;;;;10.58;100.00;100232.78;5044689;28;20134;-45
2022/12/31 00:23:53;;;;;;;28.38;2.90;;;;;;;10.56;100.00;100238.38;5035118;28;20446;-45
2022/12/31 00:26:24;;;;;;;25.08;3.08;;;;;;;10.54;100.00;100238.56;5044793;28;20026;-46
2022/12/31 00:28:50;;;;;;;31.20;2.90;;;;;;;10.53;100.00;100236.06;5036193;28;20092;-46
2022/12/31 00:31:18;;;;;;;28.95;3.08;;;;;;;10.51;100.00;100227.38;5048247;28;20041;-45
2022/12/31 00:33:44;;;;;;;31.95;3.13;;;;;;;10.49;100.00;100230.25;5050113;28;20039;-45
2022/12/31 00:36:19;;;;;;;29.25;2.83;;;;;;;10.49;100.00;100237.50;5049950;28;20033;-42
2022/12/31 00:38:46;;;;;;;21.42;3.03;;;;;;;10.47;100.00;100221.53;5049201;28;20047;-42
2022/12/31 00:41:12;;;;;;;29.92;2.67;;;;;;;10.48;100.00;100235.84;5047971;28;20043;-41
2022/12/31 00:43:37;;;;;;;33.15;2.95;;;;;;;10.48;100.00;100220.53;5049887;28;20036;-42
2022/12/31 00:46:04;;;;;;;30.20;3.42;;;;;;;10.49;100.00;100218.66;5031114;28;20026;-41
2022/12/31 00:48:30;;;;;;;26.83;3.08;;;;;;;10.47;100.00;100218.03;5044296;28;20083;-44
2022/12/31 00:50:56;;;;;;;24.67;3.00;;;;;;;10.47;100.00;100216.16;5044228;28;20104;-44
2022/12/31 00:53:22;;;;;;;27.80;2.75;;;;;;;10.48;100.00;100214.31;5030035;28;20112;-44
2022/12/31 00:55:48;;;;;;;24.17;2.80;;;;;;;10.48;100.00;100228.59;5029893;28;20021;-44
2022/12/31 00:58:13;;;;;;;21.67;2.10;;;;;;;10.48;100.00;100208.94;5041797;28;20547;-44
2022/12/31 01:00:39;;;;;;;23.13;2.53;;;;;;;10.47;100.00;100209.94;5049662;28;20041;-44
2022/12/31 01:03:05;;;;;;;19.77;2.10;;;;;;;10.51;100.00;100216.63;5032799;28;20064;-44
2022/12/31 01:05:32;;;;;;;35.95;3.42;;;;;;;10.51;100.00;100214.75;5029878;28;20035;-44
2022/12/31 01:07:57;;;;;;;21.05;2.50;;;;;;;10.51;100.00;100205.84;5042965;28;20051;-44
2022/12/31 01:13:07;;;;;;;25.27;2.55;;;;;;;10.51;100.00;100198.59;5030123;28;20083;-44
2022/12/31 01:15:34;;;;;;;23.90;3.10;;;;;;;10.51;100.00;100189.72;5033517;28;20381;-44
2022/12/31 01:18:00;;;;;;;18.95;3.10;;;;;;;10.49;100.00;100197.13;5046477;28;20029;-44
2022/12/31 01:20:25;;;;;;;30.90;3.30;;;;;;;10.48;100.00;100203.56;5033856;28;20397;-43
2022/12/31 01:22:51;;;;;;;21.10;2.58;;;;;;;10.47;100.00;100196.50;5033396;28;20025;-43
2022/12/31 01:25:16;;;;;;;26.30;2.55;;;;;;;10.47;100.00;100204.56;5031949;28;20033;-43
2022/12/31 01:27:41;;;;;;;20.45;2.92;;;;;;;10.46;100.00;100200.22;5033977;28;20059;-45
2022/12/31 01:30:07;;;;;;;24.45;2.22;;;;;;;10.48;100.00;100193.63;5033587;28;20116;-44
2022/12/31 01:32:33;;;;;;;18.83;2.40;;;;;;;10.49;100.00;100200.66;5033222;28;20492;-44
2022/12/31 01:34:58;;;;;;;16.80;2.28;;;;;;;10.48;100.00;100207.06;5033492;28;20026;-44
2022/12/31 01:37:24;;;;;;;21.70;2.97;;;;;;;10.49;100.00;100203.34;5044588;28;20060;-44
2022/12/31 01:39:49;;;;;;;20.95;3.38;;;;;;;10.47;100.00;100200.00;5035569;28;20021;-44
2022/12/31 01:42:14;;;;;;;26.52;3.00;;;;;;;10.45;100.00;100207.47;5053067;28;20210;-44
2022/12/31 01:44:39;;;;;;;29.67;3.00;;;;;;;10.43;100.00;100196.06;5050565;28;20017;-45
2022/12/31 01:47:12;;;;;;;22.70;2.33;;;;;;;10.40;100.00;100206.38;5037985;28;20025;-44
2022/12/31 01:49:50;;;;;;;20.40;2.60;;;;;;;10.37;100.00;100206.78;5051716;28;20035;-44
2022/12/31 01:52:20;;;;;;;13.52;2.00;;;;;;;10.35;100.00;100193.53;5048974;28;20026;-44
2022/12/31 01:54:53;;;;;;;15.75;2.38;;;;;;;10.32;100.00;100175.94;5031545;28;20392;-44
2022/12/31 01:57:20;;;;;;;14.05;2.17;;;;;;;10.32;100.00;100151.72;5039526;28;20107;-43
2022/12/31 01:59:45;;;;;;;14.57;2.55;;;;;;;10.29;100.00;100197.84;5051543;28;20033;-42
2022/12/31 02:02:12;;;;;;;15.00;3.22;;;;;;;10.28;100.00;100228.44;5051241;28;20500;-42
2022/12/31 02:04:37;;;;;;;22.67;2.92;;;;;;;10.27;100.00;100221.41;5051447;28;20025;-42
2022/12/31 02:07:07;;;;;;;19.55;2.80;;;;;;;10.26;100.00;100225.06;5043439;28;20052;-42
2022/12/31 02:09:34;;;;;;;18.05;3.05;;;;;;;10.26;100.00;100229.63;5036516;28;20032;-41
2022/12/31 02:12:00;;;;;;;18.63;3.13;;;;;;;10.26;100.00;100229.63;5040125;28;20034;-41
2022/12/31 02:14:32;;;;;;;13.38;3.10;;;;;;;10.24;100.00;100239.75;5032604;28;20037;-40
2022/12/31 02:17:01;;;;;;;19.15;3.00;;;;;;;10.24;100.00;100237.91;5037838;28;20036;-39
2022/12/31 02:20:00;;;;;;;20.80;2.78;;;;;;;10.25;100.00;100238.72;5052107;28;20171;-40
2022/12/31 02:22:46;;;;;;;22.20;2.90;;;;;;;10.23;100.00;100235.41;5052167;28;20020;-39
2022/12/31 02:25:30;;;;;;;18.23;2.65;;;;;;;10.22;100.00;100231.88;5050980;28;20104;-38
2022/12/31 02:28:17;;;;;;;24.30;2.50;;;;;;;10.19;100.00;100237.66;5049993;28;20033;-38
2022/12/31 02:30:46;;;;;;;17.90;3.77;;;;;;;10.16;100.00;100240.72;5047886;28;20148;-39
2022/12/31 02:33:17;;;;;;;15.07;2.05;;;;;;;10.15;100.00;100238.22;5029965;28;20029;-40
2022/12/31 02:35:56;;;;;;;20.35;2.20;;;;;;;10.11;100.00;100218.97;5041132;28;20032;-41
2022/12/31 02:38:31;;;;;;;15.88;1.98;;;;;;;10.07;100.00;100220.38;5041352;28;20065;-41
2022/12/31 02:40:56;;;;;;;16.52;2.33;;;;;;;10.03;100.00;100235.22;5044335;28;20450;-41
2022/12/31 02:43:23;;;;;;;22.95;2.20;;;;;;;9.97;100.00;100233.31;5043958;28;20025;-41
2022/12/31 02:46:11;;;;;;;14.63;1.80;;;;;;;9.93;100.00;100245.50;5031788;28;20373;-41
2022/12/31 02:48:51;;;;;;;18.38;2.17;;;;;;;9.90;100.00;100246.72;5049735;28;20047;-41
2022/12/31 02:51:16;;;;;;;23.90;1.95;;;;;;;9.90;100.00;100252.09;5032795;28;20039;-40
2022/12/31 02:53:48;;;;;;;21.02;1.70;;;;;;;9.86;100.00;100248.94;5031013;28;20025;-40
2022/12/31 02:56:42;;;;;;;18.23;2.40;;;;;;;9.84;100.00;100261.72;5042548;28;20052;-41
2022/12/31 03:02:13;;;;;;;8.20;1.55;;;;;;;9.77;100.00;100268.03;5020019;28;20124;-40
2022/12/31 03:04:40;;;;;;;10.82;1.98;;;;;;;9.74;100.00;100261.22;5040852;28;20086;-44
2022/12/31 03:07:12;;;;;;;12.90;1.38;;;;;;;9.68;100.00;100256.59;5029775;28;20672;-45
2022/12/31 03:09:38;;;;;;;15.40;1.30;;;;;;;9.64;100.00;100245.41;5045203;28;20068;-45
2022/12/31 03:14:50;;;;;;;17.50;1.23;;;;;;;9.57;100.00;100254.41;5041961;28;20118;-43
2022/12/31 03:17:15;;;;;;;10.40;1.27;;;;;;;9.54;100.00;100249.41;5038231;28;20029;-44
2022/12/31 03:22:28;;;;;;;17.52;1.67;;;;;;;9.48;100.00;100242.09;5039576;28;20080;-45
2022/12/31 03:27:38;;;;;;;14.25;1.40;;;;;;;9.42;100.00;100222.22;5042868;28;20043;-44
2022/12/31 03:30:04;;;;;;;14.13;1.50;;;;;;;9.40;100.00;100214.34;5045796;28;20029;-44
2022/12/31 03:32:30;;;;;;;15.43;1.20;;;;;;;9.38;100.00;100216.41;5040522;28;20060;-42
2022/12/31 03:34:55;;;;;;;7.45;0.95;;;;;;;9.38;100.00;100212.88;5042809;28;20026;-42
2022/12/31 03:37:20;;;;;;;11.02;1.52;;;;;;;9.37;100.00;100214.75;5047470;28;20082;-42
2022/12/31 03:39:46;;;;;;;24.52;2.33;;;;;;;9.37;100.00;100208.50;5048679;28;20108;-42
2022/12/31 03:42:11;;;;;;;12.77;1.60;;;;;;;9.36;100.00;100196.94;5030990;28;20026;-43
2022/12/31 03:44:36;;;;;;;7.50;1.20;;;;;;;9.36;100.00;100185.38;5031582;28;20041;-43
2022/12/31 03:47:02;;;;;;;7.88;1.17;;;;;;;9.36;100.00;100188.88;5047487;28;20432;-42
2022/12/31 03:49:27;;;;;;;11.70;1.38;;;;;;;9.37;100.00;100204.00;5050753;28;20488;-43
2022/12/31 03:51:52;;;;;;;9.10;1.13;;;;;;;9.36;100.00;100202.31;5043454;28;20571;-43
2022/12/31 03:54:18;;;;;;;11.82;1.85;;;;;;;9.37;100.00;100209.38;5030521;28;20484;-44
2022/12/31 03:56:43;;;;;;;30.38;2.00;;;;;;;9.38;100.00;100208.34;5033239;28;20530;-44
2022/12/31 03:59:08;;;;;;;16.70;1.63;;;;;;;9.36;100.00;100207.69;5050561;28;20452;-44
2022/12/31 04:01:34;;;;;;;20.33;2.45;;;;;;;9.37;100.00;100225.50;5050463;28;20464;-45
2022/12/31 04:03:59;;;;;;;15.13;2.85;;;;;;;9.38;100.00;100224.44;5050427;28;20531;-44
2022/12/31 04:06:24;;;;;;;14.23;2.05;;;;;;;9.38;100.00;100219.09;5050139;28;20472;-44
2022/12/31 04:08:49;;;;;;;12.18;1.88;;;;;;;9.40;100.00;100224.25;5037326;28;20460;-43
2022/12/31 04:11:15;;;;;;;13.57;3.15;;;;;;;9.38;100.00;100227.13;5041767;28;20496;-42
2022/12/31 04:13:40;;;;;;;13.38;2.15;;;;;;;9.41;100.00;100218.69;5030417;28;20389;-42
2022/12/31 04:16:05;;;;;;;12.35;2.55;;;;;;;9.43;100.00;100230.09;5030829;28;20099;-42
2022/12/31 04:18:31;;;;;;;9.63;2.40;;;;;;;9.44;100.00;100230.91;5028814;28;20078;-43
2022/12/31 04:21:04;;;;;;;15.63;3.03;;;;;;;9.47;100.00;100221.66;5033213;28;20067;-45
2022/12/31 04:23:29;;;;;;;11.13;3.13;;;;;;;9.47;100.00;100214.41;5050390;28;20071;-44
2022/12/31 04:25:54;;;;;;;13.73;3.40;;;;;;;9.47;100.00;100222.47;5041459;28;20132;-45
2022/12/31 04:28:20;;;;;;;10.05;3.30;;;;;;;9.47;100.00;100218.97;5030367;28;20108;-44
2022/12/31 04:30:45;;;;;;;9.48;3.22;;;;;;;9.47;100.00;100230.53;5029780;28;20140;-44
2022/12/31 04:33:10;;;;;;;10.52;3.90;;;;;;;9.47;100.00;100219.78;5041307;28;20097;-44
2022/12/31 04:35:36;;;;;;;13.98;4.28;;;;;;;9.46;100.00;100207.41;5034356;28;20030;-44
2022/12/31 04:38:01;;;;;;;9.02;4.30;;;;;;;9.48;100.00;100215.25;5040168;28;20044;-44
2022/12/31 04:40:26;;;;;;;12.15;4.80;;;;;;;9.46;100.00;100210.06;5031597;28;20053;-45
2022/12/31 04:42:51;;;;;;;9.20;4.72;;;;;;;9.48;100.00;100212.56;5045167;28;20021;-44
2022/12/31 04:45:17;;;;;;;10.45;4.72;;;;;;;9.48;100.00;100216.09;5048075;28;20029;-43
2022/12/31 04:47:42;;;;;;;10.18;4.97;;;;;;;9.48;100.00;100209.88;5037439;28;20070;-43
2022/12/31 04:50:08;;;;;;;10.65;4.93;;;;;;;9.48;100.00;100221.47;5052797;28;20075;-43
2022/12/31 04:52:33;;;;;;;11.15;5.03;;;;;;;9.48;100.00;100217.94;5053122;28;20029;-43
2022/12/31 04:54:58;;;;;;;9.23;4.93;;;;;;;9.48;100.00;100215.25;5035200;28;20465;-44
2022/12/31 04:57:24;;;;;;;11.50;4.63;;;;;;;9.48;100.00;100208.03;5040652;28;20013;-44
2022/12/31 04:59:49;;;;;;;6.22;4.60;;;;;;;9.50;100.00;100213.19;5046659;28;20037;-44
2022/12/31 05:02:14;;;;;;;8.60;4.53;;;;;;;9.48;100.00;100217.94;5035024;28;20069;-43
2022/12/31 05:04:40;;;;;;;6.70;5.47;;;;;;;9.52;100.00;100212.00;5045047;28;20039;-43
2022/12/31 05:07:05;;;;;;;13.65;6.30;;;;;;;9.55;100.00;100210.78;5053693;28;20048;-42
2022/12/31 05:09:30;;;;;;;12.88;6.78;;;;;;;9.53;100.00;100211.00;5053578;28;20029;-42
2022/12/31 05:11:56;;;;;;;12.65;7.20;;;;;;;9.54;100.00;100212.66;5049245;28;20451;-42
2022/12/31 05:14:21;;;;;;;14.65;7.53;;;;;;;9.57;100.00;100211.44;5033650;28;20491;-41
2022/12/31 05:16:46;;;;;;;10.48;6.82;;;;;;;9.60;100.00;100211.88;5034382;28;20029;-42
2022/12/31 05:19:12;;;;;;;12.50;6.95;;;;;;;9.62;100.00;100207.16;5034019;28;20029;-42
2022/12/31 05:21:37;;;;;;;11.25;6.88;;;;;;;9.68;100.00;100205.53;5048975;28;20155;-41
2022/12/31 05:24:03;;;;;;;10.98;6.65;;;;;;;9.72;100.00;100206.84;5053632;28;20029;-41
2022/12/31 05:26:28;;;;;;;11.70;6.28;;;;;;;9.84;100.00;100205.28;5052027;28;20369;-42
2022/12/31 05:28:55;;;;;;;8.95;5.90;;;;;;;9.88;100.00;100209.25;5051708;28;20025;-41
2022/12/31 05:31:21;;;;;;;9.23;6.07;;;;;;;9.91;100.00;100215.28;5040541;28;20553;-41
2022/12/31 05:33:46;;;;;;;10.55;5.63;;;;;;;9.94;100.00;100201.44;5036704;28;20022;-41
2022/12/31 05:36:11;;;;;;;8.93;5.30;;;;;;;9.98;100.00;100208.94;5033181;28;20500;-41
2022/12/31 05:38:37;;;;;;;7.97;5.50;;;;;;;10.02;100.00;100206.69;5034697;28;20392;-41
2022/12/31 05:41:04;;;;;;;6.20;4.78;;;;;;;10.08;100.00;100211.28;5043567;28;20341;-41
2022/12/31 05:43:30;;;;;;;6.40;4.32;;;;;;;10.11;100.00;100216.28;5045010;28;20029;-41
2022/12/31 05:45:55;;;;;;;4.85;3.67;;;;;;;10.13;100.00;100214.22;5034269;28;20540;-41
2022/12/31 05:48:21;;;;;;;6.80;4.47;;;;;;;10.14;100.00;100205.13;5034296;28;20132;-41
2022/12/31 05:50:47;;;;;;;6.47;3.40;;;;;;;10.17;100.00;100220.06;5033725;28;20035;-42
2022/12/31 05:53:13;;;;;;;4.47;3.05;;;;;;;10.21;100.00;100219.44;5039029;28;20078;-44
2022/12/31 05:55:38;;;;;;;3.83;2.50;;;;;;;10.24;100.00;100213.69;5038892;28;20502;-43
2022/12/31 05:58:03;;;;;;;3.72;2.83;;;;;;;10.27;100.00;100220.56;5047222;28;20462;-42
2022/12/31 06:00:29;;;;;;;3.10;2.65;;;;;;;10.26;100.00;100214.31;5038021;28;20025;-42
2022/12/31 06:02:54;;;;;;;4.20;2.97;;;;;;;10.32;100.00;100220.81;5035254;28;20025;-42
2022/12/31 06:05:19;;;;;;;4.00;3.53;;;;;;;10.45;100.00;100218.22;5037371;28;20041;-42
2022/12/31 06:07:45;;;;;;;3.67;3.30;;;;;;;10.46;100.00;100235.19;5047283;28;20029;-42
2022/12/31 06:10:10;;;;;;;6.13;4.10;;;;;;;10.52;100.00;100224.47;5048241;28;20030;-41
2022/12/31 06:12:35;;;;;;;4.97;3.78;;;;;;;10.58;100.00;100228.22;5032580;28;20124;-41
2022/12/31 06:15:01;;;;;;;6.10;3.10;;;;;;;10.62;100.00;100229.50;5032813;28;20477;-41
2022/12/31 06:17:28;;;;;;;4.57;3.63;;;;;;;10.76;100.00;100225.84;5032246;28;20021;-41
2022/12/31 06:19:53;;;;;;;7.15;3.55;;;;;;;10.83;100.00;100228.59;5032672;28;20104;-40
2022/12/31 06:22:18;;;;;;;8.60;3.15;;;;;;;10.88;100.00;100222.63;5039147;28;20515;-40
2022/12/31 06:24:44;;;;;;;7.70;4.00;;;;;;;11.01;100.00;100228.09;5035909;28;20465;-43
2022/12/31 06:27:09;;;;;;;4.13;3.40;;;;;;;11.01;100.00;100214.63;5017828;28;20044;-42
2022/12/31 06:29:35;;;;;;;4.25;3.25;;;;;;;11.10;100.00;100220.66;5029964;28;20067;-46
2022/12/31 06:32:00;;;;;;;4.97;3.30;;;;;;;11.14;100.00;100236.22;5029872;28;20128;-41
2022/12/31 06:34:25;;;;;;;3.97;2.72;;;;;;;11.15;100.00;100256.72;5028773;28;20067;-40
2022/12/31 06:36:50;;;;;;;6.70;2.42;;;;;;;11.28;100.00;100220.09;5030001;28;20132;-40
2022/12/31 06:39:16;;;;;;;4.32;2.20;;;;;;;11.25;100.00;100223.22;5028076;28;20033;-39
2022/12/31 06:41:41;;;;;;;2.00;1.70;;;;;;;11.27;100.00;100230.06;5040855;28;20037;-39
2022/12/31 06:44:06;;;;;;;5.03;2.00;;;;;;;11.32;100.00;100221.34;5030117;28;20022;-40
2022/12/31 06:46:32;;;;;;;2.13;1.73;;;;;;;11.36;100.00;100225.31;5030635;28;20051;-39
2022/12/31 06:48:57;;;;;;;2.63;1.48;;;;;;;11.43;100.00;100242.34;5029723;28;20025;-39
2022/12/31 06:51:22;;;;;;;3.10;1.30;;;;;;;11.52;100.00;100259.97;5029655;28;20040;-38
2022/12/31 06:53:49;;;;;;;3.33;1.20;;;;;;;11.54;100.00;100244.44;5029344;28;20038;-40
2022/12/31 06:56:17;;;;;;;1.48;1.10;;;;;;;11.66;100.00;100247.34;5029314;28;20029;-38
2022/12/31 06:58:43;;;;;;;2.60;1.00;;;;;;;11.68;100.00;100239.91;5042289;28;20100;-40
2022/12/31 07:01:08;;;;;;;1.42;0.82;;;;;;;11.72;100.00;100251.13;5040308;28;20098;-39
2022/12/31 07:03:40;;;;;;;3.28;1.00;;;;;;;11.79;100.00;100247.38;5049204;28;20033;-42
2022/12/31 07:06:14;;;;;;;6.55;0.95;;;;;;;11.76;100.00;100250.50;5039671;28;20033;-45
2022/12/31 07:09:17;;;;;;;5.80;1.00;;;;;;;11.80;100.00;100257.16;5029512;28;20041;-44
2022/12/31 07:11:56;;;;;;;5.18;0.90;;;;;;;11.80;100.00;100267.94;5029152;28;20040;-45
2022/12/31 07:14:24;;;;;;;3.22;1.02;;;;;;;11.83;100.00;100258.63;5011880;28;20587;-44
2022/12/31 07:17:02;;;;;;;3.85;1.15;;;;;;;11.85;100.00;100256.56;5031137;28;20506;-45
2022/12/31 07:19:56;;;;;;;4.60;1.45;;;;;;;11.84;100.00;100255.69;5027796;28;20037;-43
2022/12/31 07:22:22;;;;;;;4.97;1.10;;;;;;;11.84;100.00;100262.97;5028477;28;20057;-44
2022/12/31 07:24:47;;;;;;;6.15;1.08;;;;;;;11.84;100.00;100279.13;5027436;28;20620;-44
2022/12/31 07:27:58;;;;;;;5.63;1.00;;;;;;;11.84;100.00;100269.19;5040156;28;20029;-45
2022/12/31 07:30:29;;;;;;;8.75;1.00;;;;;;;11.84;100.00;100281.84;5048779;28;20361;-44
2022/12/31 07:33:59;;;;;;;4.30;0.90;;;;;;;11.85;100.00;100267.34;5041272;28;20033;-45
2022/12/31 07:36:42;;;;;;;5.22;1.10;;;;;;;11.81;100.00;100266.91;5027082;28;20112;-44
2022/12/31 07:39:11;;;;;;;6.22;1.10;;;;;;;11.78;100.00;100278.09;5028654;28;20048;-44
2022/12/31 07:41:47;;;;;;;5.72;1.00;;;;;;;11.76;100.00;100273.94;5043590;28;20328;-44
2022/12/31 07:44:37;;;;;;;6.38;1.00;;;;;;;11.75;100.00;100272.28;5047011;28;20041;-43
2022/12/31 07:47:04;;;;;;;7.47;0.98;;;;;;;11.72;100.00;100305.03;5046810;28;20044;-43
2022/12/31 07:49:30;;;;;;;9.73;1.40;;;;;;;11.70;100.00;100275.59;5042905;28;20029;-43
2022/12/31 07:51:56;;;;;;;12.27;1.05;;;;;;;11.72;100.00;100275.41;5044966;28;20067;-42
2022/12/31 07:54:21;;;;;;;6.28;0.90;;;;;;;11.71;100.00;100273.72;5048330;28;20412;-43
2022/12/31 07:56:47;;;;;;;7.60;1.00;;;;;;;11.72;100.00;100272.69;5035502;28;20032;-43
2022/12/31 07:59:22;;;;;;;9.05;0.90;;;;;;;11.74;100.00;100278.69;5028911;28;20033;-43
2022/12/31 08:01:58;;;;;;;12.98;1.30;;;;;;;11.74;100.00;100289.47;5044388;28;20477;-43
2022/12/31 08:04:30;;;;;;;8.45;0.85;;;;;;;11.76;100.00;100287.41;5046947;28;20474;-43
2022/12/31 08:07:06;;;;;;;10.38;1.63;;;;;;;11.77;100.00;100305.25;5038630;28;20068;-42
2022/12/31 08:09:46;;;;;;;14.30;1.75;;;;;;;11.76;100.00;100312.50;5029292;28;20021;-41
2022/12/31 08:12:12;;;;;;;15.95;1.98;;;;;;;11.77;100.00;100307.94;5031364;28;20028;-42
2022/12/31 08:14:46;;;;;;;15.52;1.98;;;;;;;11.70;100.00;100305.22;5039375;28;20392;-41
2022/12/31 08:17:13;;;;;;;21.67;2.47;;;;;;;11.65;100.00;100311.22;5028207;28;20049;-41
2022/12/31 08:19:39;;;;;;;11.30;1.73;;;;;;;11.64;100.00;100316.84;5040228;28;20033;-41
2022/12/31 08:22:15;;;;;;;16.42;1.75;;;;;;;11.65;100.00;100305.00;5028434;28;20394;-41
2022/12/31 08:24:58;;;;;;;16.10;1.58;;;;;;;11.68;100.00;100311.88;5031183;28;20030;-40
2022/12/31 08:27:36;;;;;;;11.77;1.70;;;;;;;11.70;100.00;100321.41;5051108;28;20044;-40
2022/12/31 08:30:08;;;;;;;13.27;1.75;;;;;;;11.72;100.00;100322.03;5036846;28;20037;-41
2022/12/31 08:32:47;;;;;;;23.63;2.42;;;;;;;11.75;100.00;100316.25;5035898;28;20243;-41
2022/12/31 08:35:22;;;;;;;25.70;3.95;;;;;;;11.81;100.00;100346.94;5042608;28;20025;-40
2022/12/31 08:37:58;;;;;;;12.45;1.77;;;;;;;11.80;100.00;100318.34;5036306;28;20037;-39
2022/12/31 08:40:48;;;;;;;12.85;1.67;;;;;;;11.98;100.00;100331.25;5035983;28;20032;-40
2022/12/31 08:43:31;;;;;;;16.30;1.80;;;;;;;12.06;100.00;100334.63;5050523;28;20033;-39
2022/12/31 08:45:56;;;;;;;19.02;2.30;;;;;;;12.14;100.00;100359.72;5035161;28;20116;-38
2022/12/31 08:48:28;;;;;;;10.02;1.67;;;;;;;12.25;100.00;100359.16;5038663;28;20099;-40
2022/12/31 08:50:54;;;;;;;17.60;1.92;;;;;;;12.26;100.00;100358.09;5046610;28;20029;-40
2022/12/31 08:53:20;;;;;;;11.38;1.58;;;;;;;12.29;100.00;100345.00;5051494;28;20391;-40
2022/12/31 08:55:47;;;;;;;15.77;1.88;;;;;;;12.32;100.00;100349.16;5032330;28;20116;-37
2022/12/31 08:58:20;;;;;;;9.48;1.40;;;;;;;12.36;100.00;100358.53;5044821;28;20029;-39
2022/12/31 09:00:48;;;;;;;12.00;1.65;;;;;;;12.40;100.00;100365.19;5045919;28;20034;-39
2022/12/31 09:03:16;;;;;;;;;;;;;;;12.43;100.00;100380.97;5049479;28;20060;-40
2022/12/31 09:06:03;;;;;;;11.00;1.83;;;;;;;12.44;100.00;100363.72;5035532;28;19913;-39
2022/12/31 09:08:37;;;;;;;19.58;2.05;;;;;;;12.46;100.00;100366.25;5033418;28;20064;-39
2022/12/31 09:11:19;;;;;;;16.23;2.20;;;;;;;12.51;100.00;100372.66;5044046;28;20139;-39
2022/12/31 09:14:06;;;;;;;14.00;1.95;;;;;;;12.58;100.00;100369.13;5041465;28;20036;-40
2022/12/31 09:16:44;;;;;;;9.75;1.50;;;;;;;12.63;100.00;100361.25;5043374;28;20384;-40
2022/12/31 09:19:10;;;;;;;8.77;1.83;;;;;;;12.63;100.00;100370.19;5036005;28;20053;-37
2022/12/31 09:21:36;;;;;;;12.98;2.40;;;;;;;12.60;100.00;100378.69;5034832;28;20425;-40
2022/12/31 09:24:03;;;;;;;11.82;1.85;;;;;;;12.58;100.00;100374.53;5033969;28;20435;-40
2022/12/31 09:26:50;;;;;;;9.85;1.77;;;;;;;12.55;100.00;100383.06;5053113;28;20094;-39
2022/12/31 09:29:37;;;;;;;11.38;2.20;;;;;;;12.40;100.00;100407.50;5042441;28;20034;-44
2022/12/31 09:32:30;;;;;;;11.82;1.45;;;;;;;12.37;100.00;100397.97;5035480;28;20061;-44
2022/12/31 09:35:08;;;;;;;12.63;1.73;;;;;;;12.34;100.00;100411.03;5031970;28;20362;-43
2022/12/31 09:38:16;;;;;;;12.63;2.05;;;;;;;12.41;100.00;100412.72;5032529;28;20083;-42
2022/12/31 09:41:35;;;;;;;9.68;1.42;;;;;;;12.43;100.00;100418.75;5004463;28;20132;-43
2022/12/31 09:44:38;;;;;;;9.32;1.67;;;;;;;12.36;100.00;100409.81;5010732;28;20038;-44
2022/12/31 09:47:32;;;;;;;15.95;1.83;;;;;;;12.31;100.00;100417.69;5041702;28;20049;-44
2022/12/31 09:50:17;;;;;;;11.93;1.90;;;;;;;12.31;100.00;100406.88;5040380;28;20507;-43
2022/12/31 09:53:15;;;;;;;10.90;1.50;;;;;;;12.52;100.00;100435.59;5032531;28;20382;-43
2022/12/31 09:56:12;;;;;;;6.80;1.35;;;;;;;12.74;100.00;100415.47;5039717;28;20041;-42
2022/12/31 09:58:51;;;;;;;9.57;1.88;;;;;;;12.86;100.00;100426.47;5041367;28;20036;-41
2022/12/31 10:01:33;;;;;;;6.88;1.38;;;;;;;12.89;100.00;100431.47;5031596;28;20080;-40
2022/12/31 10:04:20;;;;;;;8.35;1.63;;;;;;;12.89;100.00;100425.25;5052561;28;20036;-40
2022/12/31 10:07:04;;;;;;;10.10;1.75;;;;;;;12.91;100.00;100424.00;5043839;28;20036;-40
2022/12/31 10:09:36;;;;;;;14.52;1.85;;;;;;;12.90;100.00;100425.03;5040635;28;20073;-40
2022/12/31 10:12:22;;;;;;;8.93;1.60;;;;;;;12.91;100.00;100439.38;5030613;28;20125;-39
2022/12/31 10:15:19;;;;;;;10.27;1.52;;;;;;;12.90;100.00;100432.28;5031137;28;20040;-39
2022/12/31 10:18:26;;;;;;;10.32;2.65;;;;;;;12.87;100.00;100438.13;5032410;28;20025;-38
2022/12/31 10:21:15;;;;;;;14.27;2.40;;;;;;;12.84;100.00;100460.97;5032450;28;20453;-38
2022/12/31 10:23:59;;;;;;;10.77;2.35;;;;;;;12.86;100.00;100472.41;5035815;28;20051;-39
2022/12/31 10:26:36;;;;;;;13.95;2.85;;;;;;;12.87;100.00;100465.13;5056068;28;20130;-39
2022/12/31 10:29:11;;;;;;;6.45;2.20;;;;;;;12.85;100.00;100468.03;5058936;28;20064;-36
2022/12/31 10:31:39;;;;;;;10.90;2.55;;;;;;;12.85;100.00;100476.16;5032170;28;20124;-41
2022/12/31 10:34:21;;;;;;;7.38;2.17;;;;;;;12.85;100.00;100483.41;5032310;28;20095;-41
2022/12/31 10:36:49;;;;;;;8.90;2.15;;;;;;;12.90;100.00;100495.28;5030943;28;20032;-42
2022/12/31 10:39:30;;;;;;;10.75;1.90;;;;;;;12.99;100.00;100490.50;5032644;28;20032;-44
2022/12/31 10:42:32;;;;;;;10.98;2.83;;;;;;;12.96;100.00;100475.53;5034571;28;20040;-42
2022/12/31 10:45:13;;;;;;;9.13;2.08;;;;;;;12.95;100.00;100473.88;5031729;28;20063;-41
2022/12/31 10:48:14;;;;;;;10.00;2.60;;;;;;;12.95;100.00;100463.06;5034960;28;20095;-41
2022/12/31 10:51:01;;;;;;;10.43;2.50;;;;;;;12.94;100.00;100477.59;5050916;28;20396;-41
2022/12/31 10:54:04;;;;;;;9.35;2.55;;;;;;;12.95;100.00;100481.97;5051003;28;20522;-40
2022/12/31 10:56:48;;;;;;;5.80;1.73;;;;;;;12.90;100.00;100503.38;5051326;28;20376;-44
2022/12/31 10:59:31;;;;;;;9.88;2.33;;;;;;;12.82;100.00;100500.00;5036573;28;20033;-42
2022/12/31 11:02:27;;;;;;;10.50;2.22;;;;;;;12.71;100.00;100525.75;5040297;28;20047;-44
2022/12/31 11:05:41;;;;;;;8.18;1.60;;;;;;;12.51;100.00;100493.31;5031929;28;20021;-44
2022/12/31 11:08:19;;;;;;;9.00;1.98;;;;;;;12.36;100.00;100481.84;5030013;28;20033;-46
2022/12/31 11:11:09;;;;;;;9.20;1.83;;;;;;;12.28;100.00;100486.38;5036359;28;20030;-43
2022/12/31 11:14:08;;;;;;;14.65;2.47;;;;;;;12.16;100.00;100479.06;5045228;28;20141;-44
2022/12/31 11:16:37;;;;;;;15.77;2.47;;;;;;;12.08;100.00;100497.09;5040914;28;20036;-43
2022/12/31 11:19:30;;;;;;;11.95;2.60;;;;;;;12.03;100.00;100493.31;5042454;28;20025;-44
2022/12/31 11:22:06;;;;;;;15.70;2.75;;;;;;;11.99;100.00;100484.78;5034413;28;20053;-43
2022/12/31 11:24:40;;;;;;;14.25;2.60;;;;;;;11.99;100.00;100498.28;5047130;28;20036;-43
2022/12/31 11:27:18;;;;;;;14.70;3.45;;;;;;;11.99;100.00;100489.38;5046507;28;20033;-43
2022/12/31 11:29:55;;;;;;;13.45;3.05;;;;;;;11.98;100.00;100485.84;5028537;28;20064;-44
2022/12/31 11:32:43;;;;;;;10.52;3.20;;;;;;;11.99;100.00;100484.78;5039326;28;20068;-43
2022/12/31 11:35:20;;;;;;;16.75;3.38;;;;;;;12.01;100.00;100465.72;5035203;28;20498;-43
2022/12/31 11:37:51;;;;;;;13.98;3.30;;;;;;;12.00;100.00;100472.97;5038730;28;20041;-44
2022/12/31 11:41:02;;;;;;;14.20;3.70;;;;;;;11.99;100.00;100463.22;5042777;28;20549;-44
2022/12/31 11:43:37;;;;;;;18.73;4.30;;;;;;;11.97;100.00;100475.25;5050827;28;20049;-42
2022/12/31 11:46:33;;;;;;;18.98;4.60;;;;;;;11.94;100.00;100462.97;5048760;28;20029;-45
2022/12/31 11:49:17;;;;;;;18.67;5.72;;;;;;;11.98;100.00;100483.16;5030836;28;20120;-43
2022/12/31 11:52:13;;;;;;;24.38;6.25;;;;;;;12.02;100.00;100473.59;5036640;28;20428;-44
2022/12/31 11:54:53;;;;;;;17.33;7.05;;;;;;;12.05;100.00;100459.72;5037541;28;20468;-44